createdAt,value
2023-01-18T00:00:37.739Z,0.30
2023-01-18T00:03:05.919Z,0.30
2023-01-18T00:05:35.274Z,0.30
2023-01-18T00:08:03.359Z,0.20
2023-01-18T00:10:31.442Z,0.30
2023-01-18T00:13:00.855Z,0.20
2023-01-18T00:15:28.960Z,0.20
2023-01-18T00:17:57.129Z,0.20
2023-01-18T00:20:27.401Z,0.20
2023-01-18T00:22:55.980Z,0.20
2023-01-18T00:25:25.512Z,0.10
2023-01-18T00:27:55.062Z,0.10
2023-01-18T00:30:26.688Z,0.10
2023-01-18T00:32:57.060Z,0.10
2023-01-18T00:35:25.951Z,0.10
2023-01-18T00:37:54.716Z,0.00
2023-01-18T00:40:23.852Z,0.00
2023-01-18T00:43:09.191Z,-0.10
2023-01-18T00:45:38.696Z,-0.20
2023-01-18T00:48:07.331Z,-0.20
2023-01-18T00:50:35.483Z,-0.10
2023-01-18T00:53:03.568Z,-0.10
2023-01-18T00:55:31.629Z,-0.10
2023-01-18T00:57:59.752Z,-0.20
2023-01-18T01:00:27.834Z,-0.20
2023-01-18T01:02:58.515Z,-0.20
2023-01-18T01:05:46.157Z,-0.30
2023-01-18T01:08:17.830Z,-0.20
2023-01-18T01:10:47.258Z,-0.20
2023-01-18T01:13:34.769Z,-0.20
2023-01-18T01:16:23.978Z,-0.20
2023-01-18T01:19:11.693Z,-0.20
2023-01-18T01:21:57.558Z,-0.30
2023-01-18T01:24:43.792Z,-0.30
2023-01-18T01:27:12.593Z,-0.30
2023-01-18T01:29:40.968Z,-0.30
2023-01-18T01:32:09.217Z,-0.30
2023-01-18T01:34:38.703Z,-0.30
2023-01-18T01:37:07.276Z,-0.20
2023-01-18T01:39:35.376Z,-0.20
2023-01-18T01:42:03.490Z,-0.10
2023-01-18T01:44:55.628Z,-0.10
2023-01-18T01:47:29.346Z,-0.10
2023-01-18T01:50:02.977Z,-0.20
2023-01-18T01:52:34.209Z,-0.20
2023-01-18T01:55:08.003Z,-0.20
2023-01-18T01:57:38.923Z,-0.20
2023-01-18T02:00:10.650Z,-0.30
2023-01-18T02:02:39.641Z,-0.30
2023-01-18T02:05:13.993Z,-0.20
2023-01-18T02:07:42.606Z,-0.20
2023-01-18T02:10:12.199Z,-0.30
2023-01-18T02:12:42.271Z,-0.30
2023-01-18T02:15:11.612Z,-0.30
2023-01-18T02:18:07.971Z,-0.30
2023-01-18T02:21:09.469Z,-0.30
2023-01-18T02:24:15.294Z,-0.40
2023-01-18T02:27:00.315Z,-0.40
2023-01-18T02:29:45.626Z,-0.40
2023-01-18T02:32:25.094Z,-0.30
2023-01-18T02:34:58.523Z,-0.40
2023-01-18T02:37:37.952Z,-0.30
2023-01-18T02:40:16.943Z,-0.30
2023-01-18T02:43:03.922Z,-0.40
2023-01-18T02:45:53.163Z,-0.40
2023-01-18T02:48:24.007Z,-0.30
2023-01-18T02:50:52.865Z,-0.40
2023-01-18T02:53:20.936Z,-0.30
2023-01-18T02:55:54.846Z,-0.30
2023-01-18T02:58:28.412Z,-0.30
2023-01-18T03:01:03.890Z,-0.40
2023-01-18T03:03:32.165Z,-0.40
2023-01-18T03:06:02.351Z,-0.40
2023-01-18T03:08:36.474Z,-0.50
2023-01-18T03:11:09.043Z,-0.40
2023-01-18T03:14:00.673Z,-0.50
2023-01-18T03:16:40.098Z,-0.50
2023-01-18T03:19:32.347Z,-0.50
2023-01-18T03:22:01.812Z,-0.50
2023-01-18T03:24:31.172Z,-0.60
2023-01-18T03:27:17.804Z,-0.50
2023-01-18T03:30:05.265Z,-0.50
2023-01-18T03:32:52.962Z,-0.50
2023-01-18T03:35:27.316Z,-0.50
2023-01-18T03:37:57.464Z,-0.50
2023-01-18T03:40:29.364Z,-0.60
2023-01-18T03:43:04.507Z,-0.60
2023-01-18T03:45:37.524Z,-0.60
2023-01-18T03:48:09.954Z,-0.70
2023-01-18T03:50:46.917Z,-0.80
2023-01-18T03:53:20.543Z,-0.70
2023-01-18T03:55:53.935Z,-0.70
2023-01-18T03:58:29.658Z,-0.70
2023-01-18T04:00:57.854Z,-0.70
2023-01-18T04:03:27.369Z,-0.70
2023-01-18T04:05:55.562Z,-0.70
2023-01-18T04:08:23.720Z,-0.80
2023-01-18T04:10:51.837Z,-0.80
2023-01-18T04:13:20.063Z,-0.70
2023-01-18T04:15:48.164Z,-0.80
2023-01-18T04:18:16.600Z,-0.80
2023-01-18T04:20:46.020Z,-0.70
2023-01-18T04:23:14.117Z,-0.60
2023-01-18T04:25:50.001Z,-0.40
2023-01-18T04:28:25.251Z,-0.50
2023-01-18T04:30:54.274Z,-0.40
2023-01-18T04:33:23.326Z,-0.40
2023-01-18T04:35:54.302Z,-0.40
2023-01-18T04:38:22.523Z,-0.40
2023-01-18T04:40:51.052Z,-0.30
2023-01-18T04:43:19.409Z,-0.30
2023-01-18T04:45:54.661Z,-0.30
2023-01-18T04:48:22.936Z,-0.20
2023-01-18T04:50:52.453Z,-0.20
2023-01-18T04:53:21.234Z,-0.30
2023-01-18T04:55:49.608Z,-0.30
2023-01-18T04:58:17.895Z,-0.20
2023-01-18T05:00:46.195Z,-0.30
2023-01-18T05:03:14.423Z,-0.20
2023-01-18T05:05:42.607Z,-0.20
2023-01-18T05:08:12.141Z,-0.10
2023-01-18T05:10:40.214Z,-0.20
2023-01-18T05:13:08.353Z,-0.20
2023-01-18T05:15:36.474Z,-0.20
2023-01-18T05:18:05.546Z,-0.20
2023-01-18T05:20:33.589Z,-0.10
2023-01-18T05:23:10.556Z,-0.20
2023-01-18T05:25:40.562Z,-0.20
2023-01-18T05:28:09.555Z,-0.10
2023-01-18T05:30:41.250Z,-0.20
2023-01-18T05:33:10.201Z,-0.30
2023-01-18T05:35:38.339Z,-0.30
2023-01-18T05:38:06.514Z,-0.30
2023-01-18T05:40:34.580Z,-0.30
2023-01-18T05:43:04.009Z,-0.30
2023-01-18T05:45:32.150Z,-0.30
2023-01-18T05:48:00.408Z,-0.20
2023-01-18T05:50:28.635Z,-0.10
2023-01-18T05:52:58.732Z,-0.10
2023-01-18T05:55:27.794Z,-0.10
2023-01-18T05:57:55.970Z,-0.10
2023-01-18T06:00:25.798Z,-0.10
2023-01-18T06:02:54.466Z,-0.10
2023-01-18T06:05:23.163Z,-0.20
2023-01-18T06:07:51.287Z,-0.20
2023-01-18T06:10:19.966Z,-0.20
2023-01-18T06:12:48.269Z,-0.20
2023-01-18T06:15:17.169Z,-0.20
2023-01-18T06:17:47.389Z,-0.20
2023-01-18T06:20:17.146Z,-0.20
2023-01-18T06:22:46.643Z,-0.10
2023-01-18T06:25:14.796Z,-0.10
2023-01-18T06:27:43.121Z,-0.10
2023-01-18T06:30:12.208Z,-0.10
2023-01-18T06:32:40.288Z,-0.20
2023-01-18T06:35:10.095Z,-0.20
2023-01-18T06:37:38.179Z,-0.20
2023-01-18T06:40:07.599Z,-0.10
2023-01-18T06:42:35.698Z,-0.10
2023-01-18T06:45:04.070Z,0.00
2023-01-18T06:47:32.291Z,0.00
2023-01-18T06:50:00.352Z,0.00
2023-01-18T06:52:29.818Z,0.00
2023-01-18T06:54:57.984Z,0.00
2023-01-18T06:57:26.172Z,0.00
2023-01-18T06:59:55.009Z,0.10
2023-01-18T07:02:23.111Z,0.00
2023-01-18T07:04:51.274Z,0.00
2023-01-18T07:07:19.492Z,0.10
2023-01-18T07:09:49.069Z,0.00
2023-01-18T07:12:17.543Z,0.10
2023-01-18T07:14:45.740Z,0.10
2023-01-18T07:17:13.951Z,0.10
2023-01-18T07:19:42.221Z,0.10
2023-01-18T07:22:10.447Z,0.10
2023-01-18T07:24:38.644Z,0.10
2023-01-18T07:27:08.183Z,0.10
2023-01-18T07:29:36.412Z,0.10
2023-01-18T07:32:04.907Z,0.10
2023-01-18T07:34:33.064Z,0.10
2023-01-18T07:37:01.394Z,0.10
2023-01-18T07:39:29.772Z,0.10
2023-01-18T07:41:57.916Z,0.20
2023-01-18T07:44:27.603Z,0.10
2023-01-18T07:46:55.787Z,0.20
2023-01-18T07:49:23.989Z,0.10
2023-01-18T07:51:52.121Z,0.20
2023-01-18T07:54:20.284Z,0.10
2023-01-18T07:56:48.320Z,0.20
2023-01-18T07:59:17.263Z,0.10
2023-01-18T08:01:46.878Z,0.20
2023-01-18T08:04:15.085Z,0.10
2023-01-18T08:06:43.224Z,0.20
2023-01-18T08:09:11.421Z,0.10
2023-01-18T08:11:39.658Z,0.20
2023-01-18T08:14:07.759Z,0.20
2023-01-18T08:16:35.960Z,0.20
2023-01-18T08:19:05.418Z,0.20
2023-01-18T08:21:33.627Z,0.30
2023-01-18T08:24:01.785Z,0.30
2023-01-18T08:26:30.053Z,0.30
2023-01-18T08:28:59.068Z,0.30
2023-01-18T08:31:27.515Z,0.20
2023-01-18T08:33:55.739Z,0.30
2023-01-18T08:36:26.925Z,0.30
2023-01-18T08:38:57.219Z,0.50
2023-01-18T08:41:28.423Z,0.50
2023-01-18T08:43:57.378Z,0.50
2023-01-18T08:46:26.997Z,0.50
2023-01-18T08:48:56.971Z,0.50
2023-01-18T08:51:26.933Z,0.50
2023-01-18T08:53:57.283Z,0.50
2023-01-18T08:56:26.627Z,0.50
2023-01-18T08:58:55.072Z,0.60
2023-01-18T09:01:24.799Z,0.60
2023-01-18T09:03:55.738Z,0.60
2023-01-18T09:06:23.955Z,0.80
2023-01-18T09:08:53.643Z,0.90
2023-01-18T09:11:22.730Z,0.90
2023-01-18T09:14:00.646Z,1.10
2023-01-18T09:16:30.333Z,1.20
2023-01-18T09:19:00.227Z,1.30
2023-01-18T09:21:29.698Z,1.30
2023-01-18T09:24:00.043Z,1.40
2023-01-18T09:26:30.866Z,1.50
2023-01-18T09:29:00.159Z,1.60
2023-01-18T09:31:30.998Z,1.60
2023-01-18T09:34:18.040Z,1.70
2023-01-18T09:36:51.893Z,1.80
2023-01-18T09:39:23.151Z,1.80
2023-01-18T09:41:54.849Z,1.90
2023-01-18T09:44:30.470Z,1.80
2023-01-18T09:47:04.997Z,1.80
2023-01-18T09:49:39.121Z,1.70
2023-01-18T09:52:21.284Z,1.70
2023-01-18T09:54:59.191Z,1.90
2023-01-18T09:57:44.937Z,2.10
2023-01-18T10:00:22.146Z,2.30
2023-01-18T10:02:55.743Z,2.30
2023-01-18T10:05:27.169Z,2.40
2023-01-18T10:08:04.124Z,2.40
2023-01-18T10:10:40.411Z,2.30
2023-01-18T10:13:33.923Z,2.20
2023-01-18T10:16:03.670Z,2.40
2023-01-18T10:18:32.757Z,2.60
2023-01-18T10:21:06.169Z,2.60
2023-01-18T10:23:42.128Z,2.80
2023-01-18T10:26:19.247Z,2.80
2023-01-18T10:28:53.662Z,2.80
2023-01-18T10:31:37.501Z,2.90
2023-01-18T10:34:15.721Z,3.00
2023-01-18T10:36:47.160Z,3.00
2023-01-18T10:39:28.840Z,3.10
2023-01-18T10:42:06.114Z,3.10
2023-01-18T10:44:35.337Z,3.20
2023-01-18T10:47:04.076Z,3.20
2023-01-18T10:49:38.593Z,3.30
2023-01-18T10:52:21.431Z,3.30
2023-01-18T10:54:55.998Z,3.40
2023-01-18T10:57:31.200Z,3.40
2023-01-18T11:00:01.091Z,3.50
2023-01-18T11:02:35.084Z,3.60
2023-01-18T11:05:17.982Z,3.70
2023-01-18T11:07:46.129Z,3.70
2023-01-18T11:10:26.011Z,3.80
2023-01-18T11:12:55.693Z,3.80
2023-01-18T11:15:29.244Z,3.80
2023-01-18T11:18:12.048Z,3.80
2023-01-18T11:20:49.957Z,3.90
2023-01-18T11:23:25.488Z,4.00
2023-01-18T11:25:58.200Z,4.10
2023-01-18T11:28:30.864Z,4.10
2023-01-18T11:31:06.340Z,4.10
2023-01-18T11:33:34.590Z,4.20
2023-01-18T11:36:04.527Z,4.20
2023-01-18T11:38:34.806Z,4.30
2023-01-18T11:41:16.249Z,4.50
2023-01-18T11:44:04.728Z,4.40
2023-01-18T11:46:40.087Z,4.50
2023-01-18T11:49:21.516Z,4.50
2023-01-18T11:51:55.607Z,4.40
2023-01-18T11:54:31.659Z,4.60
2023-01-18T11:57:03.068Z,4.70
2023-01-18T11:59:36.179Z,4.60
2023-01-18T12:02:34.239Z,4.60
2023-01-18T12:05:29.045Z,4.80
2023-01-18T12:08:11.645Z,4.90
2023-01-18T12:10:51.018Z,4.90
2023-01-18T12:13:37.083Z,4.90
2023-01-18T12:16:18.712Z,5.00
2023-01-18T12:19:23.333Z,5.00
2023-01-18T12:22:07.708Z,5.00
2023-01-18T12:24:49.606Z,5.10
2023-01-18T12:27:25.979Z,5.10
2023-01-18T12:30:12.242Z,5.20
2023-01-18T12:33:04.690Z,5.40
2023-01-18T12:35:51.824Z,5.30
2023-01-18T12:38:24.079Z,5.30
2023-01-18T12:41:27.973Z,5.40
2023-01-18T12:44:23.187Z,5.50
2023-01-18T12:47:03.959Z,5.60
2023-01-18T12:49:39.392Z,5.60
2023-01-18T12:52:18.593Z,5.50
2023-01-18T12:54:49.971Z,5.60
2023-01-18T12:57:19.714Z,5.80
2023-01-18T12:59:52.765Z,5.90
2023-01-18T13:02:33.216Z,5.80
2023-01-18T13:05:07.410Z,5.90
2023-01-18T13:07:40.345Z,5.80
2023-01-18T13:10:15.537Z,6.00
2023-01-18T13:12:44.859Z,6.00
2023-01-18T13:15:26.955Z,6.00
2023-01-18T13:18:02.747Z,5.90
2023-01-18T13:20:44.823Z,5.90
2023-01-18T13:23:25.431Z,5.70
2023-01-18T13:26:03.177Z,5.80
2023-01-18T13:28:31.380Z,5.90
2023-01-18T13:31:03.211Z,6.00
2023-01-18T13:33:34.457Z,6.10
2023-01-18T13:36:08.159Z,6.10
2023-01-18T13:38:41.945Z,6.20
2023-01-18T13:41:12.693Z,6.20
2023-01-18T13:44:03.845Z,6.30
2023-01-18T13:46:35.241Z,6.20
2023-01-18T13:49:37.598Z,6.30
2023-01-18T13:52:32.475Z,6.20
2023-01-18T13:55:05.645Z,6.20
2023-01-18T13:57:35.831Z,6.20
2023-01-18T14:00:07.410Z,6.10
2023-01-18T14:02:43.443Z,5.90
2023-01-18T14:05:25.349Z,5.80
2023-01-18T14:07:59.209Z,5.70
2023-01-18T14:10:33.302Z,5.60
2023-01-18T14:13:04.090Z,5.50
2023-01-18T14:15:52.436Z,5.50
2023-01-18T14:18:26.148Z,5.40
2023-01-18T14:21:12.968Z,5.40
2023-01-18T14:24:20.889Z,5.40
2023-01-18T14:26:53.837Z,5.40
2023-01-18T14:29:34.261Z,5.30
2023-01-18T14:32:06.649Z,5.30
2023-01-18T14:34:40.382Z,5.20
2023-01-18T14:37:29.652Z,5.20
2023-01-18T14:40:17.375Z,5.20
2023-01-18T14:42:50.401Z,5.10
2023-01-18T14:45:23.429Z,5.10
2023-01-18T14:47:52.684Z,5.10
2023-01-18T14:50:23.210Z,5.00
2023-01-18T14:52:54.033Z,5.00
2023-01-18T14:55:32.233Z,5.00
2023-01-18T14:58:11.448Z,5.00
2023-01-18T15:00:50.913Z,4.90
2023-01-18T15:03:26.382Z,4.90
2023-01-18T15:06:02.935Z,4.90
2023-01-18T15:08:35.156Z,4.90
2023-01-18T15:11:06.267Z,4.80
2023-01-18T15:13:42.000Z,4.80
2023-01-18T15:16:11.075Z,4.80
2023-01-18T15:18:42.133Z,4.70
2023-01-18T15:21:18.192Z,4.70
2023-01-18T15:23:47.195Z,4.70
2023-01-18T15:26:17.155Z,4.70
2023-01-18T15:28:46.031Z,4.60
2023-01-18T15:31:15.897Z,4.60
2023-01-18T15:33:46.682Z,4.60
2023-01-18T15:36:16.541Z,4.60
2023-01-18T15:38:45.751Z,4.60
2023-01-18T15:41:18.120Z,4.60
2023-01-18T15:43:48.993Z,4.60
2023-01-18T15:46:18.404Z,4.50
2023-01-18T15:48:50.220Z,4.50
2023-01-18T15:51:22.399Z,4.50
2023-01-18T15:53:56.257Z,4.50
2023-01-18T15:56:29.894Z,4.50
2023-01-18T15:59:01.388Z,4.50
2023-01-18T16:01:31.978Z,4.50
2023-01-18T16:04:04.178Z,4.50
2023-01-18T16:06:34.580Z,4.50
2023-01-18T16:09:10.497Z,4.40
2023-01-18T16:11:51.819Z,4.40
2023-01-18T16:14:23.700Z,4.40
2023-01-18T16:16:53.362Z,4.40
2023-01-18T16:19:28.469Z,4.40
2023-01-18T16:21:59.929Z,4.40
2023-01-18T16:24:35.253Z,4.40
2023-01-18T16:27:12.021Z,4.40
2023-01-18T16:29:46.963Z,4.40
2023-01-18T16:32:31.080Z,4.40
2023-01-18T16:35:01.010Z,4.40
2023-01-18T16:37:30.649Z,4.40
2023-01-18T16:39:58.785Z,4.40
2023-01-18T16:42:37.648Z,4.40
2023-01-18T16:45:13.387Z,4.40
2023-01-18T16:47:41.473Z,4.30
2023-01-18T16:50:15.372Z,4.30
2023-01-18T16:52:43.501Z,4.30
2023-01-18T16:55:13.619Z,4.30
2023-01-18T16:57:43.919Z,4.30
2023-01-18T17:00:18.201Z,4.30
2023-01-18T17:02:46.784Z,4.30
2023-01-18T17:05:15.814Z,4.20
2023-01-18T17:07:44.207Z,4.20
2023-01-18T17:10:21.027Z,4.20
2023-01-18T17:12:50.463Z,4.20
2023-01-18T17:15:20.103Z,4.20
2023-01-18T17:17:48.472Z,4.20
2023-01-18T17:20:19.184Z,4.10
2023-01-18T17:22:47.334Z,4.20
2023-01-18T17:25:16.297Z,4.20
2023-01-18T17:27:44.517Z,4.20
2023-01-18T17:30:15.979Z,4.20
2023-01-18T17:32:45.773Z,4.20
2023-01-18T17:35:14.924Z,4.20
2023-01-18T17:37:43.042Z,4.20
2023-01-18T17:40:19.583Z,4.20
2023-01-18T17:42:53.758Z,4.20
2023-01-18T17:45:23.273Z,4.20
2023-01-18T17:47:53.651Z,4.20
2023-01-18T17:50:24.909Z,4.20
2023-01-18T17:52:54.195Z,4.20
2023-01-18T17:55:27.388Z,4.20
2023-01-18T17:57:58.834Z,4.20
2023-01-18T18:00:28.359Z,4.10
2023-01-18T18:02:57.462Z,4.20
2023-01-18T18:05:26.225Z,4.20
2023-01-18T18:07:54.336Z,4.20
2023-01-18T18:10:22.426Z,4.20
2023-01-18T18:12:50.476Z,4.30
2023-01-18T18:15:22.301Z,4.30
2023-01-18T18:17:52.158Z,4.30
2023-01-18T18:20:22.093Z,4.30
2023-01-18T18:22:51.312Z,4.30
2023-01-18T18:25:19.520Z,4.30
2023-01-18T18:27:47.811Z,4.30
2023-01-18T18:30:17.644Z,4.30
2023-01-18T18:32:45.735Z,4.30
2023-01-18T18:35:24.849Z,4.30
2023-01-18T18:37:55.403Z,4.30
2023-01-18T18:40:24.057Z,4.30
2023-01-18T18:43:01.997Z,4.30
2023-01-18T18:45:32.147Z,4.20
2023-01-18T18:48:00.641Z,4.20
2023-01-18T18:50:31.482Z,4.20
2023-01-18T18:53:00.602Z,4.10
2023-01-18T18:55:29.286Z,4.00
2023-01-18T18:57:57.951Z,4.00
2023-01-18T19:00:27.498Z,4.00
2023-01-18T19:02:59.986Z,3.90
2023-01-18T19:05:30.715Z,3.80
2023-01-18T19:08:00.027Z,3.80
2023-01-18T19:10:30.589Z,3.70
2023-01-18T19:12:59.927Z,3.70
2023-01-18T19:15:29.111Z,3.60
2023-01-18T19:17:59.067Z,3.60
2023-01-18T19:20:27.616Z,3.60
2023-01-18T19:22:57.868Z,3.70
2023-01-18T19:25:26.941Z,3.70
2023-01-18T19:27:55.736Z,3.70
2023-01-18T19:30:24.120Z,3.70
2023-01-18T19:32:53.731Z,3.60
2023-01-18T19:35:22.304Z,3.60
2023-01-18T19:37:50.836Z,3.60
2023-01-18T19:40:21.763Z,3.60
2023-01-18T19:42:55.847Z,3.50
2023-01-18T19:45:28.112Z,3.50
2023-01-18T19:47:58.812Z,3.50
2023-01-18T19:50:28.200Z,3.50
2023-01-18T19:52:56.951Z,3.50
2023-01-18T19:55:26.645Z,3.50
2023-01-18T19:57:57.840Z,3.50
2023-01-18T20:00:26.803Z,3.50
2023-01-18T20:02:55.233Z,3.50
2023-01-18T20:05:24.064Z,3.50
2023-01-18T20:07:52.715Z,3.50
2023-01-18T20:10:21.146Z,3.50
2023-01-18T20:12:51.364Z,3.50
2023-01-18T20:15:21.305Z,3.50
2023-01-18T20:17:50.676Z,3.60
2023-01-18T20:20:31.356Z,3.50
2023-01-18T20:23:02.980Z,3.60
2023-01-18T20:25:32.587Z,3.60
2023-01-18T20:28:02.484Z,3.60
2023-01-18T20:30:30.798Z,3.50
2023-01-18T20:32:59.176Z,3.50
2023-01-18T20:35:27.508Z,3.50
2023-01-18T20:37:55.866Z,3.50
2023-01-18T20:40:24.083Z,3.40
2023-01-18T20:42:52.140Z,3.40
2023-01-18T20:45:21.592Z,3.40
2023-01-18T20:47:49.604Z,3.40
2023-01-18T20:50:18.956Z,3.30
2023-01-18T20:52:47.026Z,3.30
2023-01-18T20:55:16.524Z,3.30
2023-01-18T20:57:44.604Z,3.30
2023-01-18T21:00:14.133Z,3.30
2023-01-18T21:02:43.846Z,3.30
2023-01-18T21:05:12.199Z,3.30
2023-01-18T21:07:41.763Z,3.30
2023-01-18T21:10:11.854Z,3.20
2023-01-18T21:12:41.350Z,3.20
2023-01-18T21:15:10.453Z,3.20
2023-01-18T21:17:39.759Z,3.20
2023-01-18T21:20:11.081Z,3.20
2023-01-18T21:22:39.142Z,3.20
2023-01-18T21:25:08.642Z,3.20
2023-01-18T21:27:36.783Z,3.20
2023-01-18T21:30:05.623Z,3.30
2023-01-18T21:32:33.750Z,3.30
2023-01-18T21:35:01.696Z,3.30
2023-01-18T21:37:31.255Z,3.30
2023-01-18T21:40:00.666Z,3.30
2023-01-18T21:42:46.309Z,3.40
2023-01-18T21:45:32.941Z,3.40
2023-01-18T21:48:01.684Z,3.40
2023-01-18T21:50:47.530Z,3.40
2023-01-18T21:53:34.586Z,3.40
2023-01-18T21:56:02.703Z,3.50
2023-01-18T21:58:48.486Z,3.50
2023-01-18T22:01:18.790Z,3.50
2023-01-18T22:04:04.318Z,3.50
2023-01-18T22:06:32.508Z,3.50
2023-01-18T22:09:02.102Z,3.50
2023-01-18T22:11:30.138Z,3.50
2023-01-18T22:13:58.437Z,3.50
2023-01-18T22:16:30.400Z,3.50
2023-01-18T22:18:59.228Z,3.50
2023-01-18T22:21:29.287Z,3.50
2023-01-18T22:23:57.381Z,3.40
2023-01-18T22:26:29.297Z,3.40
2023-01-18T22:28:58.218Z,3.40
2023-01-18T22:31:27.122Z,3.40
2023-01-18T22:33:57.333Z,3.40
2023-01-18T22:36:25.787Z,3.40
2023-01-18T22:38:54.542Z,3.40
2023-01-18T22:41:24.528Z,3.40
2023-01-18T22:43:55.298Z,3.30
2023-01-18T22:46:24.441Z,3.30
2023-01-18T22:48:52.919Z,3.30
2023-01-18T22:51:23.597Z,3.30
2023-01-18T22:53:52.201Z,3.30
2023-01-18T22:56:22.952Z,3.30
2023-01-18T22:58:51.460Z,3.30
2023-01-18T23:01:24.894Z,3.30
2023-01-18T23:03:54.355Z,3.30
2023-01-18T23:06:22.998Z,3.30
2023-01-18T23:08:52.103Z,3.30
2023-01-18T23:11:22.598Z,3.30
2023-01-18T23:14:10.352Z,3.30
2023-01-18T23:17:11.860Z,3.30
2023-01-18T23:19:40.102Z,3.30
2023-01-18T23:22:08.352Z,3.30
2023-01-18T23:24:37.847Z,3.30
2023-01-18T23:27:08.036Z,3.30
2023-01-18T23:29:36.177Z,3.30
2023-01-18T23:32:06.438Z,3.20
2023-01-18T23:34:34.555Z,3.20
2023-01-18T23:37:02.903Z,3.20
2023-01-18T23:39:48.720Z,3.20
2023-01-18T23:42:33.986Z,3.20
2023-01-18T23:45:19.404Z,3.20
2023-01-18T23:48:06.369Z,3.20
2023-01-18T23:50:51.768Z,3.20
2023-01-18T23:53:37.306Z,3.30
2023-01-18T23:56:05.505Z,3.30
2023-01-18T23:58:33.612Z,3.30
